Portada
METAR-TAF:

METAR-TAF

Aeroports :

Koumac, Nova Caledònia

latitud: 20-34S, longitud: 164-17E, altitud: 23 m

METAR: manca

Hora: 00:57 (13:57 UTC)

Pronòstic

L'informe es va fer fa 8 hores i 57 minuts, a les 05:00 UTC
Pronòstic vàlid del 23 a les 06 UTC al 24 a les 06 UTC
Vent 10 kt del Sud
Visibilitat 10 km o més
Núvols disperses a una alçada de 5000 ft
Evolucionant progressivament
l' 23 a les 06 UTC al 23 a les 09 UTC
Vent 5 kt del Sud-Est
Evolucionant progressivament
l' 23 a les 22 UTC al 23 a les 24 UTC
Vent 10 kt del Sud/Sud-Oest

TAF: NWWK 230500Z 2306/2406 19010KT 9999 SCT050 BECMG 2306/2309 13005KT BECMG 2322/2324 20010KT

Observacions i pronòstics meteorològics de més de 4000 aeroports (METAR i TAF).

Les estacions disponibles són els punts grocs i vermells al mapa.

Posi el ratolí al punt desitjat per veure el nom de l'estació.

Feu clic per veure les observacions i els pronòstics meteorològics.

Per canviar el mapa: feu clic els botons verds amb una creu de color negre per apropar; al botó verd amb un guió per allunyar la imatge; o en les fletxes verdes per a mapes adjacents.


METAR-TAF: